createdAt,value
2022-12-16T00:02:23.141Z,8.03
2022-12-16T00:05:07.943Z,10.23
2022-12-16T00:07:51.776Z,7.43
2022-12-16T00:10:53.122Z,10.43
2022-12-16T00:13:41.544Z,9.07
2022-12-16T00:16:25.362Z,11.03
2022-12-16T00:19:09.287Z,10.73
2022-12-16T00:21:52.991Z,11.70
2022-12-16T00:24:38.718Z,12.17
2022-12-16T00:27:22.480Z,11.63
2022-12-16T00:30:09.016Z,12.77
2022-12-16T00:32:52.735Z,12.40
2022-12-16T00:35:40.522Z,11.43
2022-12-16T00:38:28.278Z,13.70
2022-12-16T00:41:12.060Z,11.33
2022-12-16T00:43:55.760Z,12.27
2022-12-16T00:46:41.080Z,13.40
2022-12-16T00:49:24.871Z,14.53
2022-12-16T00:52:08.656Z,17.00
2022-12-16T00:54:52.457Z,17.10
2022-12-16T00:57:36.226Z,26.10
2022-12-16T01:00:20.532Z,21.50
2022-12-16T01:03:05.952Z,22.67
2022-12-16T01:05:50.070Z,23.43
2022-12-16T01:08:34.314Z,24.13
2022-12-16T01:11:18.972Z,27.70
2022-12-16T01:14:02.690Z,27.47
2022-12-16T01:16:46.417Z,25.93
2022-12-16T01:19:31.778Z,29.27
2022-12-16T01:22:15.573Z,24.50
2022-12-16T01:24:59.476Z,25.77
2022-12-16T01:27:43.157Z,25.73
2022-12-16T01:30:26.999Z,24.97
2022-12-16T01:33:11.950Z,25.57
2022-12-16T01:36:02.095Z,24.93
2022-12-16T01:38:46.194Z,24.47
2022-12-16T01:41:30.081Z,26.50
2022-12-16T01:44:16.129Z,20.80
2022-12-16T01:47:04.326Z,18.93
2022-12-16T01:49:53.719Z,18.80
2022-12-16T01:52:46.259Z,20.80
2022-12-16T01:55:33.746Z,21.03
2022-12-16T01:58:22.455Z,20.23
2022-12-16T02:01:06.856Z,20.63
2022-12-16T02:03:51.757Z,20.53
2022-12-16T02:06:36.201Z,20.50
2022-12-16T02:09:21.904Z,23.37
2022-12-16T02:12:25.580Z,22.13
2022-12-16T02:15:22.568Z,21.17
2022-12-16T02:18:17.717Z,21.00
2022-12-16T02:21:29.233Z,21.20
2022-12-16T02:24:45.155Z,20.20
2022-12-16T02:27:58.253Z,21.37
2022-12-16T02:30:57.920Z,22.70
2022-12-16T02:33:50.620Z,21.43
2022-12-16T02:36:47.024Z,22.30
2022-12-16T02:39:38.677Z,20.87
2022-12-16T02:42:31.020Z,23.20
2022-12-16T02:45:18.353Z,23.33
2022-12-16T02:48:03.533Z,24.07
2022-12-16T02:50:51.227Z,24.53
2022-12-16T02:53:40.225Z,22.50
2022-12-16T02:56:32.444Z,23.90
2022-12-16T02:59:23.494Z,24.90
2022-12-16T03:02:14.326Z,22.63
2022-12-16T03:05:07.601Z,23.40
2022-12-16T03:07:53.785Z,24.33
2022-12-16T03:10:42.566Z,21.33
2022-12-16T03:13:29.130Z,21.27
2022-12-16T03:16:17.703Z,22.83
2022-12-16T03:19:06.866Z,20.80
2022-12-16T03:21:57.026Z,22.63
2022-12-16T03:24:41.957Z,19.13
2022-12-16T03:27:30.522Z,17.53
2022-12-16T03:30:18.650Z,16.50
2022-12-16T03:33:05.517Z,17.53
2022-12-16T03:35:53.282Z,16.93
2022-12-16T03:38:40.208Z,17.63
2022-12-16T03:41:24.882Z,17.13
2022-12-16T03:44:09.473Z,21.17
2022-12-16T03:46:53.828Z,20.97
2022-12-16T03:49:37.701Z,21.97
2022-12-16T03:52:21.562Z,19.70
2022-12-16T03:55:07.116Z,18.07
2022-12-16T03:57:51.060Z,18.20
2022-12-16T04:00:34.918Z,17.47
2022-12-16T04:03:18.915Z,18.67
2022-12-16T04:06:03.006Z,18.63
2022-12-16T04:08:46.973Z,18.33
2022-12-16T04:12:03.942Z,20.20
2022-12-16T04:15:04.257Z,20.23
2022-12-16T04:18:05.482Z,21.23
2022-12-16T04:21:10.885Z,21.03
2022-12-16T04:24:15.898Z,20.47
2022-12-16T04:27:20.697Z,20.40
2022-12-16T04:30:20.240Z,20.33
2022-12-16T04:33:24.511Z,18.43
2022-12-16T04:36:26.396Z,19.67
2022-12-16T04:39:27.742Z,21.10
2022-12-16T04:42:30.563Z,19.00
2022-12-16T04:45:32.185Z,21.90
2022-12-16T04:48:33.542Z,20.50
2022-12-16T04:51:34.523Z,21.27
2022-12-16T04:54:35.623Z,22.17
2022-12-16T04:57:38.237Z,22.40
2022-12-16T05:00:39.917Z,19.60
2022-12-16T05:03:41.663Z,19.83
2022-12-16T05:06:43.220Z,18.53
2022-12-16T05:09:44.751Z,20.50
2022-12-16T05:12:47.281Z,19.97
2022-12-16T05:15:48.315Z,18.77
2022-12-16T05:18:49.277Z,20.07
2022-12-16T05:21:50.725Z,16.50
2022-12-16T05:24:53.161Z,16.77
2022-12-16T05:27:56.962Z,15.33
2022-12-16T05:30:58.480Z,15.30
2022-12-16T05:34:00.150Z,15.63
2022-12-16T05:37:01.651Z,16.80
2022-12-16T05:40:03.230Z,17.70
2022-12-16T05:43:10.914Z,15.53
2022-12-16T05:46:16.723Z,14.83
2022-12-16T05:49:18.550Z,17.47
2022-12-16T05:52:19.872Z,16.00
2022-12-16T05:55:21.464Z,15.63
2022-12-16T05:58:24.157Z,13.90
2022-12-16T06:01:25.607Z,14.20
2022-12-16T06:04:27.347Z,16.87
2022-12-16T06:07:28.947Z,13.17
2022-12-16T06:10:30.504Z,12.77
2022-12-16T06:13:33.492Z,14.37
2022-12-16T06:16:35.631Z,19.80
2022-12-16T06:19:37.003Z,13.57
2022-12-16T06:22:41.881Z,13.47
2022-12-16T06:25:48.310Z,12.87
2022-12-16T06:28:50.994Z,11.27
2022-12-16T06:31:52.233Z,11.77
2022-12-16T06:34:53.394Z,12.70
2022-12-16T06:37:53.623Z,11.20
2022-12-16T06:40:55.119Z,13.03
2022-12-16T06:43:57.779Z,14.33
2022-12-16T06:46:59.091Z,17.20
2022-12-16T06:50:00.541Z,13.20
2022-12-16T06:53:01.897Z,17.43
2022-12-16T06:56:03.324Z,12.70
2022-12-16T06:59:06.060Z,14.00
2022-12-16T07:02:07.088Z,13.60
2022-12-16T07:05:08.688Z,14.07
2022-12-16T07:08:10.235Z,16.53
2022-12-16T07:11:16.527Z,15.47
2022-12-16T07:14:19.796Z,13.47
2022-12-16T07:17:21.004Z,18.43
2022-12-16T07:20:22.888Z,13.23
2022-12-16T07:23:24.302Z,12.67
2022-12-16T07:26:25.688Z,11.17
2022-12-16T07:29:28.095Z,11.13
2022-12-16T07:32:29.180Z,11.53
2022-12-16T07:35:30.150Z,12.53
2022-12-16T07:38:31.553Z,17.03
2022-12-16T07:41:32.823Z,13.03
2022-12-16T07:44:35.455Z,15.63
2022-12-16T07:47:36.899Z,16.53
2022-12-16T07:50:38.472Z,10.20
2022-12-16T07:53:40.429Z,19.70
2022-12-16T07:56:42.013Z,13.33
2022-12-16T07:59:44.594Z,14.70
2022-12-16T08:02:46.004Z,12.83
2022-12-16T08:05:47.617Z,12.67
2022-12-16T08:08:48.591Z,14.73
2022-12-16T08:11:49.864Z,14.20
2022-12-16T08:14:58.148Z,15.40
2022-12-16T08:18:01.458Z,13.97
2022-12-16T08:21:02.896Z,18.53
2022-12-16T08:24:04.302Z,16.77
2022-12-16T08:27:05.736Z,12.00
2022-12-16T08:30:08.113Z,18.53
2022-12-16T08:33:18.540Z,16.33
2022-12-16T08:36:20.437Z,18.27
2022-12-16T08:39:21.895Z,18.23
2022-12-16T08:42:23.207Z,18.43
2022-12-16T08:45:26.381Z,17.47
2022-12-16T08:48:27.861Z,19.43
2022-12-16T08:51:29.117Z,14.63
2022-12-16T08:54:30.507Z,16.77
2022-12-16T08:57:31.986Z,17.93
2022-12-16T09:00:35.307Z,18.60
2022-12-16T09:03:36.551Z,23.93
2022-12-16T09:06:40.672Z,23.57
2022-12-16T09:09:42.375Z,23.73
2022-12-16T09:12:43.789Z,22.30
2022-12-16T09:15:46.302Z,23.23
2022-12-16T09:18:47.670Z,17.97
2022-12-16T09:21:49.101Z,20.40
2022-12-16T09:24:50.489Z,17.77
2022-12-16T09:27:53.424Z,25.53
2022-12-16T09:30:55.853Z,25.77
2022-12-16T09:33:57.223Z,26.50
2022-12-16T09:36:58.418Z,21.60
2022-12-16T09:40:00.072Z,27.00
2022-12-16T09:43:09.671Z,72.20
2022-12-16T09:46:19.010Z,73.17
2022-12-16T09:49:32.568Z,74.90
2022-12-16T09:52:38.146Z,51.60
2022-12-16T09:55:44.515Z,25.77
2022-12-16T09:58:49.359Z,21.00
2022-12-16T10:01:56.090Z,27.57
2022-12-16T10:04:57.614Z,23.87
2022-12-16T10:08:05.584Z,24.70
2022-12-16T10:11:16.573Z,18.37
2022-12-16T10:14:23.644Z,16.47
2022-12-16T10:17:31.408Z,21.57
2022-12-16T10:20:43.335Z,20.20
2022-12-16T10:23:50.365Z,15.37
2022-12-16T10:27:01.058Z,20.53
2022-12-16T10:30:05.205Z,19.90
2022-12-16T10:33:09.369Z,20.13
2022-12-16T10:36:11.719Z,16.17
2022-12-16T10:39:16.595Z,18.85
2022-12-16T10:42:21.089Z,13.95
2022-12-16T10:45:23.494Z,14.30
2022-12-16T10:48:28.646Z,16.23
2022-12-16T10:51:33.002Z,14.55
2022-12-16T10:54:46.577Z,14.55
2022-12-16T10:57:59.567Z,17.10
2022-12-16T11:01:04.055Z,17.17
2022-12-16T11:04:06.818Z,17.30
2022-12-16T11:07:08.161Z,13.25
2022-12-16T11:10:10.530Z,17.13
2022-12-16T11:13:26.006Z,16.17
2022-12-16T11:16:31.049Z,14.35
2022-12-16T11:19:40.987Z,16.90
2022-12-16T11:22:42.841Z,13.13
2022-12-16T11:25:44.211Z,13.90
2022-12-16T11:28:45.662Z,11.52
2022-12-16T11:31:47.239Z,14.85
2022-12-16T11:34:50.931Z,10.50
2022-12-16T11:37:53.793Z,13.05
2022-12-16T11:40:56.744Z,13.48
2022-12-16T11:44:01.331Z,11.30
2022-12-16T11:47:02.937Z,13.45
2022-12-16T11:50:05.307Z,14.68
2022-12-16T11:53:14.588Z,13.68
2022-12-16T11:56:16.611Z,15.48
2022-12-16T11:59:22.418Z,9.63
2022-12-16T12:02:31.867Z,14.13
2022-12-16T12:05:34.960Z,15.05
2022-12-16T12:08:46.283Z,16.35
2022-12-16T12:11:50.393Z,17.13
2022-12-16T12:14:58.071Z,18.88
2022-12-16T12:18:06.648Z,28.67
2022-12-16T12:21:18.767Z,25.10
2022-12-16T12:24:28.059Z,17.33
2022-12-16T12:27:40.407Z,17.20
2022-12-16T12:30:42.742Z,22.00
2022-12-16T12:33:56.166Z,18.02
2022-12-16T12:37:07.305Z,15.30
2022-12-16T12:40:16.383Z,15.13
2022-12-16T12:43:19.761Z,12.27
2022-12-16T12:46:28.852Z,14.48
2022-12-16T12:49:38.443Z,13.73
2022-12-16T12:52:55.648Z,14.45
2022-12-16T12:56:02.010Z,16.65
2022-12-16T12:59:05.246Z,15.35
2022-12-16T13:02:09.350Z,17.30
2022-12-16T13:05:11.325Z,13.43
2022-12-16T13:08:13.688Z,20.60
2022-12-16T13:11:34.984Z,14.77
2022-12-16T13:15:20.791Z,19.55
2022-12-16T13:18:39.351Z,21.23
2022-12-16T13:22:03.242Z,17.48
2022-12-16T13:25:09.326Z,19.00
2022-12-16T13:28:15.217Z,20.85
2022-12-16T13:31:25.897Z,14.85
2022-12-16T13:34:46.054Z,16.00
2022-12-16T13:37:47.530Z,19.65
2022-12-16T13:41:07.631Z,15.30
2022-12-16T13:44:10.976Z,12.55
2022-12-16T13:47:13.605Z,18.13
2022-12-16T13:50:26.537Z,15.63
2022-12-16T13:53:30.267Z,19.48
2022-12-16T13:56:34.286Z,16.13
2022-12-16T13:59:39.443Z,13.77
2022-12-16T14:02:49.824Z,16.90
2022-12-16T14:05:56.000Z,17.67
2022-12-16T14:09:01.102Z,11.95
2022-12-16T14:12:08.650Z,21.92
2022-12-16T14:15:16.236Z,20.15
2022-12-16T14:18:24.797Z,22.10
2022-12-16T14:21:39.625Z,25.58
2022-12-16T14:24:44.484Z,26.15
2022-12-16T14:28:05.979Z,19.02
2022-12-16T14:31:07.365Z,34.53
2022-12-16T14:34:11.969Z,24.10
2022-12-16T14:37:13.404Z,29.77
2022-12-16T14:40:14.713Z,32.60
2022-12-16T14:43:17.111Z,27.63
2022-12-16T14:46:19.014Z,21.80
2022-12-16T14:49:25.933Z,24.87
2022-12-16T14:52:46.349Z,23.13
2022-12-16T14:55:50.173Z,45.63
2022-12-16T14:58:52.562Z,52.70
2022-12-16T15:01:54.161Z,56.10
2022-12-16T15:05:10.237Z,103.83
2022-12-16T15:08:11.607Z,116.17
2022-12-16T15:11:13.264Z,64.33
2022-12-16T15:14:19.041Z,52.17
2022-12-16T15:17:20.657Z,44.50
2022-12-16T15:20:22.820Z,52.93
2022-12-16T15:23:34.959Z,52.50
2022-12-16T15:26:37.733Z,50.50
2022-12-16T15:29:53.184Z,56.73
2022-12-16T15:32:54.719Z,46.20
2022-12-16T15:35:57.803Z,50.73
2022-12-16T15:38:59.687Z,56.40
2022-12-16T15:42:20.513Z,64.07
2022-12-16T15:45:24.038Z,62.63
2022-12-16T15:48:31.592Z,47.97
2022-12-16T15:51:47.938Z,44.50
2022-12-16T15:54:49.471Z,63.57
2022-12-16T15:57:52.499Z,63.67
2022-12-16T16:00:54.892Z,60.23
2022-12-16T16:03:57.217Z,75.87
2022-12-16T16:07:04.746Z,65.37
2022-12-16T16:10:06.367Z,74.30
2022-12-16T16:13:03.973Z,61.07
2022-12-16T16:16:06.693Z,60.07
2022-12-16T16:19:08.132Z,79.37
2022-12-16T16:22:09.398Z,49.63
2022-12-16T16:25:10.650Z,44.10
2022-12-16T16:28:11.729Z,74.37
2022-12-16T16:31:14.431Z,35.97
2022-12-16T16:34:16.055Z,50.63
2022-12-16T16:37:17.490Z,42.50
2022-12-16T16:40:19.478Z,36.17
2022-12-16T16:43:20.258Z,38.07
2022-12-16T16:46:33.092Z,40.37
2022-12-16T16:49:40.683Z,48.00
2022-12-16T16:52:44.081Z,68.37
2022-12-16T16:55:45.180Z,73.23
2022-12-16T16:58:50.309Z,61.03
2022-12-16T17:01:52.937Z,43.67
2022-12-16T17:04:53.936Z,46.30
2022-12-16T17:07:55.535Z,38.33
2022-12-16T17:10:57.047Z,39.30
2022-12-16T17:13:57.982Z,49.80
2022-12-16T17:17:00.483Z,44.80
2022-12-16T17:20:01.618Z,58.70
2022-12-16T17:23:05.903Z,73.73
2022-12-16T17:26:07.372Z,56.47
2022-12-16T17:29:10.463Z,55.63
2022-12-16T17:32:12.917Z,40.10
2022-12-16T17:35:14.448Z,36.57
2022-12-16T17:38:15.553Z,32.47
2022-12-16T17:41:16.958Z,40.93
2022-12-16T17:44:29.949Z,41.90
2022-12-16T17:47:32.845Z,38.50
2022-12-16T17:50:34.260Z,36.13
2022-12-16T17:53:36.133Z,45.57
2022-12-16T17:56:37.797Z,35.27
2022-12-16T17:59:39.232Z,46.83
2022-12-16T18:02:41.689Z,44.57
2022-12-16T18:05:44.878Z,43.93
2022-12-16T18:08:46.443Z,46.73
2022-12-16T18:11:47.263Z,33.60
2022-12-16T18:14:48.766Z,31.93
2022-12-16T18:17:51.538Z,26.13
2022-12-16T18:20:52.896Z,34.90
2022-12-16T18:23:54.435Z,38.93
2022-12-16T18:26:55.755Z,39.63
2022-12-16T18:29:57.031Z,43.40
2022-12-16T18:32:59.573Z,40.03
2022-12-16T18:36:01.067Z,49.83
2022-12-16T18:39:02.480Z,52.70
2022-12-16T18:42:05.284Z,49.67
2022-12-16T18:45:07.764Z,37.93
2022-12-16T18:48:10.453Z,35.20
2022-12-16T18:51:12.287Z,52.33
2022-12-16T18:54:13.126Z,51.70
2022-12-16T18:57:14.480Z,42.83
2022-12-16T19:00:15.376Z,41.73
2022-12-16T19:03:18.009Z,31.63
2022-12-16T19:06:19.369Z,35.03
2022-12-16T19:09:20.679Z,43.20
2022-12-16T19:12:21.469Z,35.87
2022-12-16T19:15:22.749Z,46.20
2022-12-16T19:18:25.252Z,31.00
2022-12-16T19:21:27.582Z,37.53
2022-12-16T19:24:28.895Z,31.73
2022-12-16T19:27:29.741Z,39.87
2022-12-16T19:30:30.996Z,48.67
2022-12-16T19:33:33.545Z,48.30
2022-12-16T19:36:34.574Z,43.47
2022-12-16T19:39:36.156Z,44.50
2022-12-16T19:42:37.553Z,39.23
2022-12-16T19:45:38.978Z,36.27
2022-12-16T19:48:41.461Z,38.57
2022-12-16T19:51:43.186Z,43.70
2022-12-16T19:54:58.682Z,46.73
2022-12-16T19:57:59.763Z,40.03
2022-12-16T20:01:00.827Z,39.47
2022-12-16T20:04:03.284Z,48.27
2022-12-16T20:07:04.764Z,35.50
2022-12-16T20:10:05.593Z,39.70
2022-12-16T20:13:06.384Z,40.27
2022-12-16T20:16:07.629Z,45.97
2022-12-16T20:19:10.096Z,43.77
2022-12-16T20:22:14.535Z,54.03
2022-12-16T20:25:19.977Z,38.97
2022-12-16T20:31:42.730Z,37.37
2022-12-16T20:34:45.010Z,38.10
2022-12-16T20:37:56.184Z,42.97
2022-12-16T20:40:56.404Z,41.93
2022-12-16T20:43:57.763Z,42.57
2022-12-16T20:46:59.223Z,37.40
2022-12-16T20:50:01.824Z,33.73
2022-12-16T20:53:04.873Z,45.03
2022-12-16T20:56:06.232Z,44.50
2022-12-16T20:59:07.800Z,33.93
2022-12-16T21:02:30.345Z,32.47
2022-12-16T21:05:32.707Z,34.63
2022-12-16T21:08:33.657Z,34.57
2022-12-16T21:11:35.336Z,32.03
2022-12-16T21:14:36.616Z,29.20
2022-12-16T21:14:42.429Z,41.47
2022-12-16T21:17:38.040Z,34.00
2022-12-16T21:20:40.573Z,29.87
2022-12-16T21:23:42.739Z,23.23
2022-12-16T21:26:44.220Z,26.60
2022-12-16T21:29:45.136Z,33.27
2022-12-16T21:32:46.548Z,43.07
2022-12-16T21:35:49.030Z,32.57
2022-12-16T21:38:50.311Z,32.00
2022-12-16T21:41:51.641Z,37.77
2022-12-16T21:44:53.144Z,36.73
2022-12-16T21:47:57.937Z,38.53
2022-12-16T21:51:00.522Z,28.57
2022-12-16T21:54:08.270Z,42.40
2022-12-16T21:57:11.554Z,31.67
2022-12-16T22:00:12.954Z,31.93
2022-12-16T22:03:14.488Z,36.73
2022-12-16T22:06:18.251Z,41.13
2022-12-16T22:09:19.209Z,44.17
2022-12-16T22:12:20.545Z,37.43
2022-12-16T22:15:21.966Z,38.90
2022-12-16T22:18:23.413Z,36.10
2022-12-16T22:21:26.054Z,34.80
2022-12-16T22:24:26.657Z,35.30
2022-12-16T22:27:27.937Z,32.63
2022-12-16T22:30:30.100Z,32.17
2022-12-16T22:33:31.533Z,32.83
2022-12-16T22:36:34.219Z,33.20
2022-12-16T22:39:38.799Z,26.13
2022-12-16T22:42:42.940Z,31.63
2022-12-16T22:45:43.964Z,30.40
2022-12-16T22:48:45.547Z,31.40
2022-12-16T22:51:48.178Z,29.50
2022-12-16T22:54:49.317Z,28.00
2022-12-16T22:57:53.391Z,25.43
2022-12-16T23:00:56.404Z,29.17
2022-12-16T23:03:58.028Z,30.00
2022-12-16T23:07:00.421Z,26.73
2022-12-16T23:10:01.771Z,28.80
2022-12-16T23:13:04.194Z,32.33
2022-12-16T23:16:05.901Z,29.00
2022-12-16T23:19:06.770Z,32.60
2022-12-16T23:22:09.487Z,26.20
2022-12-16T23:25:11.293Z,31.47
2022-12-16T23:28:12.562Z,29.63
2022-12-16T23:31:14.508Z,35.70
2022-12-16T23:34:15.840Z,36.80
2022-12-16T23:37:18.336Z,27.63
2022-12-16T23:40:19.848Z,30.53
2022-12-16T23:43:21.043Z,30.10
2022-12-16T23:46:22.514Z,28.10
2022-12-16T23:49:24.024Z,26.87
2022-12-16T23:52:26.747Z,24.00
2022-12-16T23:55:28.196Z,25.80
2022-12-16T23:58:29.696Z,31.43
